sensor_id;sensor_type;location;lat;lon;timestamp;P1;durP1;ratioP1;P2;durP2;ratioP2
80249;SDS011;69561;37.974;23.708;2023-06-24T00:01:50;7.03;;;4.15;;
80249;SDS011;69561;37.974;23.708;2023-06-24T00:04:16;6.20;;;4.20;;
80249;SDS011;69561;37.974;23.708;2023-06-24T00:06:45;8.77;;;4.65;;
80249;SDS011;69561;37.974;23.708;2023-06-24T00:09:11;6.60;;;4.32;;
80249;SDS011;69561;37.974;23.708;2023-06-24T00:11:37;6.45;;;3.92;;
80249;SDS011;69561;37.974;23.708;2023-06-24T00:14:02;5.75;;;3.92;;
80249;SDS011;69561;37.974;23.708;2023-06-24T00:16:28;5.50;;;3.92;;
80249;SDS011;69561;37.974;23.708;2023-06-24T00:18:54;6.57;;;4.22;;
80249;SDS011;69561;37.974;23.708;2023-06-24T00:21:25;6.63;;;4.07;;
80249;SDS011;69561;37.974;23.708;2023-06-24T00:23:58;9.20;;;4.05;;
80249;SDS011;69561;37.974;23.708;2023-06-24T00:26:27;5.53;;;3.90;;
80249;SDS011;69561;37.974;23.708;2023-06-24T00:28:53;6.88;;;3.92;;
80249;SDS011;69561;37.974;23.708;2023-06-24T00:31:19;7.40;;;4.00;;
80249;SDS011;69561;37.974;23.708;2023-06-24T00:33:46;6.80;;;4.07;;
80249;SDS011;69561;37.974;23.708;2023-06-24T00:36:12;6.20;;;3.80;;
80249;SDS011;69561;37.974;23.708;2023-06-24T00:38:38;9.90;;;4.05;;
80249;SDS011;69561;37.974;23.708;2023-06-24T00:41:04;7.45;;;4.50;;
80249;SDS011;69561;37.974;23.708;2023-06-24T00:43:32;6.80;;;3.88;;
80249;SDS011;69561;37.974;23.708;2023-06-24T00:45:58;8.73;;;3.95;;
80249;SDS011;69561;37.974;23.708;2023-06-24T00:48:25;7.55;;;4.20;;
80249;SDS011;69561;37.974;23.708;2023-06-24T00:50:51;7.70;;;3.55;;
80249;SDS011;69561;37.974;23.708;2023-06-24T00:53:17;5.68;;;3.97;;
80249;SDS011;69561;37.974;23.708;2023-06-24T00:55:46;6.43;;;4.07;;
80249;SDS011;69561;37.974;23.708;2023-06-24T00:58:12;7.43;;;3.80;;
80249;SDS011;69561;37.974;23.708;2023-06-24T01:00:42;5.72;;;3.70;;
80249;SDS011;69561;37.974;23.708;2023-06-24T01:03:11;13.23;;;3.70;;
80249;SDS011;69561;37.974;23.708;2023-06-24T01:05:41;8.77;;;3.97;;
80249;SDS011;69561;37.974;23.708;2023-06-24T01:08:09;5.60;;;3.47;;
80249;SDS011;69561;37.974;23.708;2023-06-24T01:10:40;6.38;;;3.63;;
80249;SDS011;69561;37.974;23.708;2023-06-24T01:13:07;6.15;;;3.90;;
80249;SDS011;69561;37.974;23.708;2023-06-24T01:15:33;6.30;;;4.03;;
80249;SDS011;69561;37.974;23.708;2023-06-24T01:18:07;5.70;;;3.53;;
80249;SDS011;69561;37.974;23.708;2023-06-24T01:31:33;6.97;;;3.78;;
80249;SDS011;69561;37.974;23.708;2023-06-24T01:37:21;9.27;;;4.15;;
80249;SDS011;69561;37.974;23.708;2023-06-24T01:40:02;10.23;;;4.05;;
80249;SDS011;69561;37.974;23.708;2023-06-24T01:42:39;6.07;;;4.13;;
80249;SDS011;69561;37.974;23.708;2023-06-24T01:45:07;5.30;;;3.85;;
80249;SDS011;69561;37.974;23.708;2023-06-24T01:47:37;7.75;;;4.03;;
80249;SDS011;69561;37.974;23.708;2023-06-24T01:50:05;8.95;;;4.18;;
80249;SDS011;69561;37.974;23.708;2023-06-24T01:52:36;9.02;;;4.47;;
80249;SDS011;69561;37.974;23.708;2023-06-24T01:55:05;6.82;;;4.32;;
80249;SDS011;69561;37.974;23.708;2023-06-24T01:57:33;8.13;;;4.72;;
80249;SDS011;69561;37.974;23.708;2023-06-24T02:00:01;8.95;;;4.10;;
80249;SDS011;69561;37.974;23.708;2023-06-24T02:02:31;8.93;;;4.30;;
80249;SDS011;69561;37.974;23.708;2023-06-24T02:04:58;6.50;;;3.90;;
80249;SDS011;69561;37.974;23.708;2023-06-24T02:07:26;5.68;;;4.18;;
80249;SDS011;69561;37.974;23.708;2023-06-24T02:09:55;8.02;;;4.25;;
80249;SDS011;69561;37.974;23.708;2023-06-24T02:12:23;8.00;;;4.20;;
80249;SDS011;69561;37.974;23.708;2023-06-24T02:14:51;8.75;;;4.00;;
80249;SDS011;69561;37.974;23.708;2023-06-24T02:17:19;6.85;;;4.45;;
80249;SDS011;69561;37.974;23.708;2023-06-24T02:19:45;6.47;;;4.00;;
80249;SDS011;69561;37.974;23.708;2023-06-24T02:22:13;6.55;;;4.10;;
80249;SDS011;69561;37.974;23.708;2023-06-24T02:24:40;5.35;;;4.15;;
80249;SDS011;69561;37.974;23.708;2023-06-24T02:27:07;7.80;;;4.45;;
80249;SDS011;69561;37.974;23.708;2023-06-24T02:29:33;6.65;;;4.30;;
80249;SDS011;69561;37.974;23.708;2023-06-24T02:32:02;9.20;;;4.38;;
80249;SDS011;69561;37.974;23.708;2023-06-24T02:34:28;7.68;;;4.25;;
80249;SDS011;69561;37.974;23.708;2023-06-24T02:36:54;9.40;;;4.55;;
80249;SDS011;69561;37.974;23.708;2023-06-24T02:39:20;9.20;;;4.25;;
80249;SDS011;69561;37.974;23.708;2023-06-24T02:41:47;8.48;;;4.13;;
80249;SDS011;69561;37.974;23.708;2023-06-24T02:44:14;6.07;;;4.25;;
80249;SDS011;69561;37.974;23.708;2023-06-24T02:46:41;5.78;;;4.03;;
80249;SDS011;69561;37.974;23.708;2023-06-24T02:49:09;8.93;;;3.95;;
80249;SDS011;69561;37.974;23.708;2023-06-24T02:51:37;11.32;;;4.22;;
80249;SDS011;69561;37.974;23.708;2023-06-24T02:54:04;7.45;;;4.40;;
80249;SDS011;69561;37.974;23.708;2023-06-24T02:56:31;8.02;;;4.60;;
80249;SDS011;69561;37.974;23.708;2023-06-24T02:58:58;8.90;;;4.40;;
80249;SDS011;69561;37.974;23.708;2023-06-24T03:01:23;5.80;;;4.05;;
80249;SDS011;69561;37.974;23.708;2023-06-24T03:03:55;6.45;;;4.18;;
80249;SDS011;69561;37.974;23.708;2023-06-24T03:06:21;9.65;;;4.50;;
80249;SDS011;69561;37.974;23.708;2023-06-24T03:08:49;8.38;;;4.55;;
80249;SDS011;69561;37.974;23.708;2023-06-24T03:11:15;9.70;;;4.18;;
80249;SDS011;69561;37.974;23.708;2023-06-24T03:13:41;9.35;;;4.53;;
80249;SDS011;69561;37.974;23.708;2023-06-24T03:16:08;9.57;;;4.47;;
80249;SDS011;69561;37.974;23.708;2023-06-24T03:18:39;5.25;;;4.00;;
80249;SDS011;69561;37.974;23.708;2023-06-24T03:21:06;6.28;;;4.45;;
80249;SDS011;69561;37.974;23.708;2023-06-24T03:23:31;12.73;;;4.88;;
80249;SDS011;69561;37.974;23.708;2023-06-24T03:25:57;9.80;;;4.53;;
80249;SDS011;69561;37.974;23.708;2023-06-24T03:28:23;8.32;;;4.20;;
80249;SDS011;69561;37.974;23.708;2023-06-24T03:30:49;6.88;;;4.25;;
80249;SDS011;69561;37.974;23.708;2023-06-24T03:33:14;9.63;;;4.70;;
80249;SDS011;69561;37.974;23.708;2023-06-24T03:35:42;8.27;;;4.00;;
80249;SDS011;69561;37.974;23.708;2023-06-24T03:38:08;5.97;;;3.88;;
80249;SDS011;69561;37.974;23.708;2023-06-24T03:40:34;12.55;;;4.50;;
80249;SDS011;69561;37.974;23.708;2023-06-24T03:42:59;7.00;;;4.05;;
80249;SDS011;69561;37.974;23.708;2023-06-24T03:45:25;13.95;;;4.40;;
80249;SDS011;69561;37.974;23.708;2023-06-24T03:47:51;7.50;;;4.32;;
80249;SDS011;69561;37.974;23.708;2023-06-24T03:50:17;15.38;;;4.30;;
80249;SDS011;69561;37.974;23.708;2023-06-24T03:52:43;7.60;;;4.38;;
80249;SDS011;69561;37.974;23.708;2023-06-24T03:55:11;9.60;;;4.40;;
80249;SDS011;69561;37.974;23.708;2023-06-24T03:57:37;8.55;;;4.60;;
80249;SDS011;69561;37.974;23.708;2023-06-24T04:00:03;11.05;;;4.10;;
80249;SDS011;69561;37.974;23.708;2023-06-24T04:02:40;8.82;;;4.18;;
80249;SDS011;69561;37.974;23.708;2023-06-24T04:05:07;10.32;;;4.18;;
80249;SDS011;69561;37.974;23.708;2023-06-24T04:07:33;7.72;;;3.95;;
80249;SDS011;69561;37.974;23.708;2023-06-24T04:10:01;11.00;;;4.32;;
80249;SDS011;69561;37.974;23.708;2023-06-24T04:12:36;8.90;;;4.13;;
80249;SDS011;69561;37.974;23.708;2023-06-24T04:15:02;14.68;;;4.20;;
80249;SDS011;69561;37.974;23.708;2023-06-24T04:17:29;11.30;;;3.90;;
80249;SDS011;69561;37.974;23.708;2023-06-24T04:19:54;8.30;;;4.07;;
80249;SDS011;69561;37.974;23.708;2023-06-24T04:22:20;8.73;;;4.22;;
80249;SDS011;69561;37.974;23.708;2023-06-24T04:24:46;7.75;;;4.20;;
80249;SDS011;69561;37.974;23.708;2023-06-24T04:27:12;7.57;;;3.90;;
80249;SDS011;69561;37.974;23.708;2023-06-24T04:29:38;8.35;;;4.20;;
80249;SDS011;69561;37.974;23.708;2023-06-24T04:32:03;9.70;;;3.90;;
80249;SDS011;69561;37.974;23.708;2023-06-24T04:34:29;11.50;;;4.15;;
80249;SDS011;69561;37.974;23.708;2023-06-24T04:36:55;8.07;;;4.05;;
80249;SDS011;69561;37.974;23.708;2023-06-24T04:39:21;10.20;;;4.00;;
80249;SDS011;69561;37.974;23.708;2023-06-24T04:41:46;11.55;;;4.00;;
80249;SDS011;69561;37.974;23.708;2023-06-24T04:44:12;10.88;;;3.80;;
80249;SDS011;69561;37.974;23.708;2023-06-24T04:46:38;11.48;;;3.92;;
80249;SDS011;69561;37.974;23.708;2023-06-24T04:49:05;11.85;;;3.90;;
80249;SDS011;69561;37.974;23.708;2023-06-24T04:51:31;9.75;;;3.70;;
80249;SDS011;69561;37.974;23.708;2023-06-24T04:53:57;10.82;;;4.20;;
80249;SDS011;69561;37.974;23.708;2023-06-24T04:56:23;6.18;;;3.38;;
80249;SDS011;69561;37.974;23.708;2023-06-24T04:58:49;8.95;;;3.83;;
80249;SDS011;69561;37.974;23.708;2023-06-24T05:01:15;14.30;;;3.92;;
80249;SDS011;69561;37.974;23.708;2023-06-24T05:03:42;9.10;;;3.83;;
80249;SDS011;69561;37.974;23.708;2023-06-24T05:06:07;10.77;;;3.65;;
80249;SDS011;69561;37.974;23.708;2023-06-24T05:08:33;5.78;;;3.55;;
80249;SDS011;69561;37.974;23.708;2023-06-24T05:10:59;7.05;;;3.50;;
80249;SDS011;69561;37.974;23.708;2023-06-24T05:13:26;9.95;;;3.70;;
80249;SDS011;69561;37.974;23.708;2023-06-24T05:15:53;6.60;;;3.63;;
80249;SDS011;69561;37.974;23.708;2023-06-24T05:18:18;8.95;;;3.70;;
80249;SDS011;69561;37.974;23.708;2023-06-24T05:20:44;9.27;;;3.67;;
80249;SDS011;69561;37.974;23.708;2023-06-24T05:23:10;9.38;;;3.50;;
80249;SDS011;69561;37.974;23.708;2023-06-24T05:25:35;5.95;;;3.65;;
80249;SDS011;69561;37.974;23.708;2023-06-24T05:28:01;4.88;;;3.60;;
80249;SDS011;69561;37.974;23.708;2023-06-24T05:30:27;9.05;;;3.58;;
80249;SDS011;69561;37.974;23.708;2023-06-24T05:32:53;6.93;;;3.92;;
80249;SDS011;69561;37.974;23.708;2023-06-24T05:35:19;6.45;;;3.70;;
80249;SDS011;69561;37.974;23.708;2023-06-24T05:37:45;8.52;;;3.70;;
80249;SDS011;69561;37.974;23.708;2023-06-24T05:40:11;5.32;;;3.63;;
80249;SDS011;69561;37.974;23.708;2023-06-24T05:42:38;9.88;;;3.90;;
80249;SDS011;69561;37.974;23.708;2023-06-24T05:45:04;5.68;;;3.70;;
80249;SDS011;69561;37.974;23.708;2023-06-24T05:47:31;5.82;;;3.50;;
80249;SDS011;69561;37.974;23.708;2023-06-24T05:49:57;7.57;;;3.53;;
80249;SDS011;69561;37.974;23.708;2023-06-24T05:52:23;8.27;;;3.50;;
80249;SDS011;69561;37.974;23.708;2023-06-24T05:54:49;8.82;;;3.50;;
80249;SDS011;69561;37.974;23.708;2023-06-24T05:57:15;7.47;;;3.35;;
80249;SDS011;69561;37.974;23.708;2023-06-24T05:59:41;8.18;;;4.00;;
80249;SDS011;69561;37.974;23.708;2023-06-24T06:02:06;5.53;;;3.45;;
80249;SDS011;69561;37.974;23.708;2023-06-24T06:04:32;5.97;;;3.50;;
80249;SDS011;69561;37.974;23.708;2023-06-24T06:06:58;6.55;;;3.67;;
80249;SDS011;69561;37.974;23.708;2023-06-24T06:09:24;7.38;;;3.63;;
80249;SDS011;69561;37.974;23.708;2023-06-24T06:11:49;8.75;;;3.75;;
80249;SDS011;69561;37.974;23.708;2023-06-24T06:14:15;3.80;;;3.28;;
80249;SDS011;69561;37.974;23.708;2023-06-24T06:16:41;8.75;;;3.67;;
80249;SDS011;69561;37.974;23.708;2023-06-24T06:19:06;5.80;;;3.60;;
80249;SDS011;69561;37.974;23.708;2023-06-24T06:21:32;6.55;;;3.40;;
80249;SDS011;69561;37.974;23.708;2023-06-24T06:23:58;5.30;;;3.22;;
80249;SDS011;69561;37.974;23.708;2023-06-24T06:26:24;8.65;;;3.15;;
80249;SDS011;69561;37.974;23.708;2023-06-24T06:28:50;4.88;;;3.05;;
80249;SDS011;69561;37.974;23.708;2023-06-24T06:31:16;6.55;;;3.25;;
80249;SDS011;69561;37.974;23.708;2023-06-24T06:33:42;6.90;;;3.35;;
80249;SDS011;69561;37.974;23.708;2023-06-24T06:36:08;5.95;;;3.13;;
80249;SDS011;69561;37.974;23.708;2023-06-24T06:38:34;3.80;;;2.92;;
80249;SDS011;69561;37.974;23.708;2023-06-24T06:41:00;5.30;;;3.03;;
80249;SDS011;69561;37.974;23.708;2023-06-24T06:43:26;6.15;;;3.30;;
80249;SDS011;69561;37.974;23.708;2023-06-24T06:45:53;5.40;;;3.33;;
80249;SDS011;69561;37.974;23.708;2023-06-24T06:48:18;4.25;;;3.20;;
80249;SDS011;69561;37.974;23.708;2023-06-24T06:50:44;9.35;;;3.10;;
80249;SDS011;69561;37.974;23.708;2023-06-24T06:53:10;5.95;;;3.17;;
80249;SDS011;69561;37.974;23.708;2023-06-24T06:55:36;10.80;;;3.40;;
80249;SDS011;69561;37.974;23.708;2023-06-24T06:58:04;5.70;;;3.50;;
80249;SDS011;69561;37.974;23.708;2023-06-24T07:00:30;5.03;;;2.88;;
80249;SDS011;69561;37.974;23.708;2023-06-24T07:02:56;10.60;;;3.30;;
80249;SDS011;69561;37.974;23.708;2023-06-24T07:05:21;7.15;;;3.13;;
80249;SDS011;69561;37.974;23.708;2023-06-24T07:07:47;12.60;;;3.35;;
80249;SDS011;69561;37.974;23.708;2023-06-24T07:10:15;6.57;;;3.50;;
80249;SDS011;69561;37.974;23.708;2023-06-24T07:12:42;6.75;;;3.25;;
80249;SDS011;69561;37.974;23.708;2023-06-24T07:15:08;4.65;;;3.22;;
80249;SDS011;69561;37.974;23.708;2023-06-24T07:17:34;4.45;;;3.30;;
80249;SDS011;69561;37.974;23.708;2023-06-24T07:20:00;6.15;;;2.85;;
80249;SDS011;69561;37.974;23.708;2023-06-24T07:22:25;6.35;;;3.20;;
80249;SDS011;69561;37.974;23.708;2023-06-24T07:24:51;7.85;;;3.28;;
80249;SDS011;69561;37.974;23.708;2023-06-24T07:27:17;4.72;;;3.20;;
80249;SDS011;69561;37.974;23.708;2023-06-24T07:29:43;10.75;;;3.05;;
80249;SDS011;69561;37.974;23.708;2023-06-24T07:32:08;7.40;;;3.00;;
80249;SDS011;69561;37.974;23.708;2023-06-24T07:34:34;6.88;;;2.72;;
80249;SDS011;69561;37.974;23.708;2023-06-24T07:37:00;4.63;;;2.70;;
80249;SDS011;69561;37.974;23.708;2023-06-24T07:39:26;5.03;;;2.38;;
80249;SDS011;69561;37.974;23.708;2023-06-24T07:41:51;8.65;;;2.60;;
80249;SDS011;69561;37.974;23.708;2023-06-24T07:44:17;8.75;;;2.78;;
80249;SDS011;69561;37.974;23.708;2023-06-24T07:46:44;3.38;;;2.40;;
80249;SDS011;69561;37.974;23.708;2023-06-24T07:49:10;3.67;;;2.30;;
80249;SDS011;69561;37.974;23.708;2023-06-24T07:51:35;5.50;;;2.50;;
80249;SDS011;69561;37.974;23.708;2023-06-24T07:54:01;8.15;;;2.40;;
80249;SDS011;69561;37.974;23.708;2023-06-24T07:56:27;2.40;;;2.20;;
80249;SDS011;69561;37.974;23.708;2023-06-24T07:58:52;2.47;;;2.28;;
80249;SDS011;69561;37.974;23.708;2023-06-24T08:01:18;3.75;;;2.42;;
80249;SDS011;69561;37.974;23.708;2023-06-24T08:03:44;2.85;;;2.55;;
80249;SDS011;69561;37.974;23.708;2023-06-24T08:06:09;4.70;;;2.60;;
80249;SDS011;69561;37.974;23.708;2023-06-24T08:08:35;5.88;;;2.55;;
80249;SDS011;69561;37.974;23.708;2023-06-24T08:11:02;3.90;;;2.50;;
80249;SDS011;69561;37.974;23.708;2023-06-24T08:13:28;4.20;;;2.60;;
80249;SDS011;69561;37.974;23.708;2023-06-24T08:15:54;5.18;;;2.75;;
80249;SDS011;69561;37.974;23.708;2023-06-24T08:18:19;3.90;;;2.70;;
80249;SDS011;69561;37.974;23.708;2023-06-24T08:20:45;2.78;;;2.50;;
80249;SDS011;69561;37.974;23.708;2023-06-24T08:23:11;5.65;;;2.50;;
80249;SDS011;69561;37.974;23.708;2023-06-24T08:25:36;4.38;;;2.72;;
80249;SDS011;69561;37.974;23.708;2023-06-24T08:28:02;6.40;;;2.53;;
80249;SDS011;69561;37.974;23.708;2023-06-24T08:30:28;4.25;;;2.90;;
80249;SDS011;69561;37.974;23.708;2023-06-24T08:32:55;5.25;;;2.75;;
80249;SDS011;69561;37.974;23.708;2023-06-24T08:35:20;4.43;;;2.97;;
80249;SDS011;69561;37.974;23.708;2023-06-24T08:37:46;4.82;;;2.83;;
80249;SDS011;69561;37.974;23.708;2023-06-24T08:40:12;5.13;;;3.13;;
80249;SDS011;69561;37.974;23.708;2023-06-24T08:42:38;9.02;;;2.58;;
80249;SDS011;69561;37.974;23.708;2023-06-24T08:45:03;4.82;;;2.83;;
80249;SDS011;69561;37.974;23.708;2023-06-24T08:47:31;3.90;;;2.67;;
80249;SDS011;69561;37.974;23.708;2023-06-24T08:50:02;3.25;;;2.70;;
80249;SDS011;69561;37.974;23.708;2023-06-24T08:52:42;4.13;;;2.92;;
80249;SDS011;69561;37.974;23.708;2023-06-24T08:55:10;2.70;;;2.50;;
80249;SDS011;69561;37.974;23.708;2023-06-24T08:57:40;7.20;;;3.03;;
80249;SDS011;69561;37.974;23.708;2023-06-24T09:00:06;7.50;;;3.17;;
80249;SDS011;69561;37.974;23.708;2023-06-24T09:02:36;4.15;;;2.90;;
80249;SDS011;69561;37.974;23.708;2023-06-24T09:05:05;6.43;;;2.88;;
80249;SDS011;69561;37.974;23.708;2023-06-24T09:07:31;5.57;;;2.90;;
80249;SDS011;69561;37.974;23.708;2023-06-24T09:09:57;6.55;;;3.03;;
80249;SDS011;69561;37.974;23.708;2023-06-24T09:12:24;5.07;;;2.83;;
80249;SDS011;69561;37.974;23.708;2023-06-24T09:14:51;3.22;;;2.65;;
80249;SDS011;69561;37.974;23.708;2023-06-24T09:17:16;5.50;;;2.88;;
80249;SDS011;69561;37.974;23.708;2023-06-24T09:19:43;6.72;;;2.80;;
80249;SDS011;69561;37.974;23.708;2023-06-24T09:22:09;4.10;;;3.10;;
80249;SDS011;69561;37.974;23.708;2023-06-24T09:24:44;4.90;;;2.75;;
80249;SDS011;69561;37.974;23.708;2023-06-24T09:27:12;3.45;;;2.67;;
80249;SDS011;69561;37.974;23.708;2023-06-24T09:29:40;6.13;;;2.97;;
80249;SDS011;69561;37.974;23.708;2023-06-24T09:32:07;6.55;;;2.65;;
80249;SDS011;69561;37.974;23.708;2023-06-24T09:34:33;4.88;;;2.70;;
80249;SDS011;69561;37.974;23.708;2023-06-24T09:37:00;6.88;;;2.88;;
80249;SDS011;69561;37.974;23.708;2023-06-24T09:39:27;8.57;;;3.17;;
80249;SDS011;69561;37.974;23.708;2023-06-24T09:41:59;3.88;;;2.75;;
80249;SDS011;69561;37.974;23.708;2023-06-24T09:44:29;9.68;;;3.20;;
80249;SDS011;69561;37.974;23.708;2023-06-24T09:46:55;3.58;;;3.00;;
80249;SDS011;69561;37.974;23.708;2023-06-24T09:49:21;6.43;;;2.95;;
80249;SDS011;69561;37.974;23.708;2023-06-24T09:51:48;5.85;;;3.10;;
80249;SDS011;69561;37.974;23.708;2023-06-24T09:54:15;3.00;;;2.70;;
80249;SDS011;69561;37.974;23.708;2023-06-24T09:56:48;6.35;;;2.90;;
80249;SDS011;69561;37.974;23.708;2023-06-24T09:59:15;7.43;;;3.22;;
80249;SDS011;69561;37.974;23.708;2023-06-24T10:01:47;5.75;;;3.13;;
80249;SDS011;69561;37.974;23.708;2023-06-24T10:04:15;3.08;;;2.67;;
80249;SDS011;69561;37.974;23.708;2023-06-24T10:06:42;5.10;;;2.85;;
80249;SDS011;69561;37.974;23.708;2023-06-24T10:09:09;3.63;;;2.92;;
80249;SDS011;69561;37.974;23.708;2023-06-24T10:11:35;6.22;;;3.30;;
80249;SDS011;69561;37.974;23.708;2023-06-24T10:14:01;6.18;;;3.13;;
80249;SDS011;69561;37.974;23.708;2023-06-24T10:16:27;3.65;;;2.78;;
80249;SDS011;69561;37.974;23.708;2023-06-24T10:18:59;3.70;;;3.20;;
80249;SDS011;69561;37.974;23.708;2023-06-24T10:21:43;5.45;;;3.00;;
80249;SDS011;69561;37.974;23.708;2023-06-24T10:25:00;3.53;;;3.22;;
80249;SDS011;69561;37.974;23.708;2023-06-24T10:27:16;4.35;;;3.17;;
80249;SDS011;69561;37.974;23.708;2023-06-24T10:29:46;3.47;;;2.92;;
80249;SDS011;69561;37.974;23.708;2023-06-24T10:32:17;4.10;;;3.05;;
80249;SDS011;69561;37.974;23.708;2023-06-24T10:34:45;7.53;;;3.08;;
80249;SDS011;69561;37.974;23.708;2023-06-24T10:37:12;6.05;;;3.30;;
80249;SDS011;69561;37.974;23.708;2023-06-24T10:42:38;3.50;;;3.20;;
80249;SDS011;69561;37.974;23.708;2023-06-24T10:50:10;4.20;;;3.08;;
80249;SDS011;69561;37.974;23.708;2023-06-24T10:52:38;4.70;;;3.08;;
80249;SDS011;69561;37.974;23.708;2023-06-24T10:55:05;3.75;;;2.58;;
80249;SDS011;69561;37.974;23.708;2023-06-24T10:57:32;4.35;;;3.03;;
80249;SDS011;69561;37.974;23.708;2023-06-24T10:59:58;4.40;;;3.03;;
80249;SDS011;69561;37.974;23.708;2023-06-24T11:02:25;6.65;;;3.45;;
80249;SDS011;69561;37.974;23.708;2023-06-24T11:04:56;5.00;;;3.17;;
80249;SDS011;69561;37.974;23.708;2023-06-24T11:07:23;6.55;;;3.35;;
80249;SDS011;69561;37.974;23.708;2023-06-24T11:12:17;5.05;;;3.40;;
80249;SDS011;69561;37.974;23.708;2023-06-24T11:14:44;8.73;;;3.28;;
80249;SDS011;69561;37.974;23.708;2023-06-24T11:17:10;7.05;;;3.30;;
80249;SDS011;69561;37.974;23.708;2023-06-24T11:19:36;4.25;;;3.22;;
80249;SDS011;69561;37.974;23.708;2023-06-24T11:22:05;3.53;;;3.22;;
80249;SDS011;69561;37.974;23.708;2023-06-24T11:24:31;4.35;;;3.30;;
80249;SDS011;69561;37.974;23.708;2023-06-24T11:26:57;4.05;;;3.05;;
80249;SDS011;69561;37.974;23.708;2023-06-24T11:29:23;4.65;;;3.10;;
80249;SDS011;69561;37.974;23.708;2023-06-24T11:31:50;5.30;;;2.90;;
80249;SDS011;69561;37.974;23.708;2023-06-24T11:34:16;5.53;;;3.22;;
80249;SDS011;69561;37.974;23.708;2023-06-24T11:36:42;4.90;;;3.20;;
80249;SDS011;69561;37.974;23.708;2023-06-24T11:39:08;3.47;;;3.15;;
80249;SDS011;69561;37.974;23.708;2023-06-24T11:41:44;5.35;;;3.30;;
80249;SDS011;69561;37.974;23.708;2023-06-24T11:44:10;4.10;;;3.05;;
80249;SDS011;69561;37.974;23.708;2023-06-24T11:46:37;3.20;;;2.90;;
80249;SDS011;69561;37.974;23.708;2023-06-24T11:49:06;5.72;;;3.30;;
80249;SDS011;69561;37.974;23.708;2023-06-24T11:51:33;3.22;;;2.90;;
80249;SDS011;69561;37.974;23.708;2023-06-24T11:54:02;3.13;;;2.67;;
80249;SDS011;69561;37.974;23.708;2023-06-24T11:56:37;3.90;;;3.00;;
80249;SDS011;69561;37.974;23.708;2023-06-24T11:59:04;3.55;;;2.70;;
80249;SDS011;69561;37.974;23.708;2023-06-24T12:01:31;3.15;;;2.80;;
80249;SDS011;69561;37.974;23.708;2023-06-24T12:03:59;4.75;;;2.85;;
80249;SDS011;69561;37.974;23.708;2023-06-24T12:06:26;6.25;;;3.03;;
80249;SDS011;69561;37.974;23.708;2023-06-24T12:08:52;3.15;;;2.85;;
80249;SDS011;69561;37.974;23.708;2023-06-24T12:11:18;3.88;;;2.65;;
80249;SDS011;69561;37.974;23.708;2023-06-24T12:13:44;5.50;;;2.90;;
80249;SDS011;69561;37.974;23.708;2023-06-24T12:16:09;5.05;;;2.90;;
80249;SDS011;69561;37.974;23.708;2023-06-24T12:18:35;4.22;;;2.50;;
80249;SDS011;69561;37.974;23.708;2023-06-24T12:21:01;4.05;;;2.50;;
80249;SDS011;69561;37.974;23.708;2023-06-24T12:23:27;3.05;;;2.70;;
80249;SDS011;69561;37.974;23.708;2023-06-24T12:25:53;3.17;;;2.60;;
80249;SDS011;69561;37.974;23.708;2023-06-24T12:28:19;4.07;;;3.00;;
80249;SDS011;69561;37.974;23.708;2023-06-24T12:30:44;4.03;;;3.13;;
80249;SDS011;69561;37.974;23.708;2023-06-24T12:33:10;3.38;;;2.60;;
80249;SDS011;69561;37.974;23.708;2023-06-24T12:35:36;3.15;;;2.65;;
80249;SDS011;69561;37.974;23.708;2023-06-24T12:38:01;5.20;;;3.17;;
80249;SDS011;69561;37.974;23.708;2023-06-24T12:40:27;3.13;;;2.83;;
80249;SDS011;69561;37.974;23.708;2023-06-24T12:42:53;3.55;;;3.00;;
80249;SDS011;69561;37.974;23.708;2023-06-24T12:45:19;3.97;;;3.10;;
80249;SDS011;69561;37.974;23.708;2023-06-24T12:47:45;5.25;;;3.15;;
80249;SDS011;69561;37.974;23.708;2023-06-24T12:50:11;3.20;;;2.88;;
80249;SDS011;69561;37.974;23.708;2023-06-24T12:52:37;3.58;;;2.70;;
80249;SDS011;69561;37.974;23.708;2023-06-24T12:55:04;4.00;;;3.00;;
80249;SDS011;69561;37.974;23.708;2023-06-24T12:57:31;4.03;;;3.20;;
80249;SDS011;69561;37.974;23.708;2023-06-24T12:59:57;5.50;;;3.08;;
80249;SDS011;69561;37.974;23.708;2023-06-24T13:02:22;4.28;;;3.15;;
80249;SDS011;69561;37.974;23.708;2023-06-24T13:04:48;3.97;;;3.40;;
80249;SDS011;69561;37.974;23.708;2023-06-24T13:07:14;3.72;;;2.97;;
80249;SDS011;69561;37.974;23.708;2023-06-24T13:09:39;3.95;;;2.75;;
80249;SDS011;69561;37.974;23.708;2023-06-24T13:12:05;6.28;;;3.25;;
80249;SDS011;69561;37.974;23.708;2023-06-24T13:14:33;3.42;;;3.13;;
80249;SDS011;69561;37.974;23.708;2023-06-24T13:16:58;3.35;;;2.80;;
80249;SDS011;69561;37.974;23.708;2023-06-24T13:19:24;4.15;;;3.00;;
80249;SDS011;69561;37.974;23.708;2023-06-24T13:21:50;3.60;;;3.13;;
80249;SDS011;69561;37.974;23.708;2023-06-24T13:24:15;6.50;;;3.67;;
80249;SDS011;69561;37.974;23.708;2023-06-24T13:26:41;5.60;;;3.08;;
80249;SDS011;69561;37.974;23.708;2023-06-24T13:29:07;3.45;;;3.13;;
80249;SDS011;69561;37.974;23.708;2023-06-24T13:31:33;3.58;;;3.22;;
80249;SDS011;69561;37.974;23.708;2023-06-24T13:33:59;3.95;;;3.13;;
80249;SDS011;69561;37.974;23.708;2023-06-24T13:36:29;6.38;;;3.20;;
80249;SDS011;69561;37.974;23.708;2023-06-24T13:39:00;3.65;;;3.35;;
80249;SDS011;69561;37.974;23.708;2023-06-24T13:41:27;3.35;;;3.05;;
80249;SDS011;69561;37.974;23.708;2023-06-24T13:43:55;4.13;;;3.20;;
80249;SDS011;69561;37.974;23.708;2023-06-24T13:46:21;5.93;;;3.45;;
80249;SDS011;69561;37.974;23.708;2023-06-24T13:48:48;6.38;;;3.53;;
80249;SDS011;69561;37.974;23.708;2023-06-24T13:51:15;4.43;;;3.33;;
80249;SDS011;69561;37.974;23.708;2023-06-24T13:53:41;3.47;;;3.17;;
80249;SDS011;69561;37.974;23.708;2023-06-24T13:56:07;5.30;;;3.30;;
80249;SDS011;69561;37.974;23.708;2023-06-24T13:58:32;4.68;;;3.60;;
80249;SDS011;69561;37.974;23.708;2023-06-24T14:00:58;5.88;;;3.38;;
80249;SDS011;69561;37.974;23.708;2023-06-24T14:03:24;5.32;;;3.30;;
80249;SDS011;69561;37.974;23.708;2023-06-24T14:05:50;3.85;;;3.40;;
80249;SDS011;69561;37.974;23.708;2023-06-24T14:08:15;3.65;;;3.35;;
80249;SDS011;69561;37.974;23.708;2023-06-24T14:10:41;4.15;;;3.33;;
80249;SDS011;69561;37.974;23.708;2023-06-24T14:13:07;5.03;;;3.72;;
80249;SDS011;69561;37.974;23.708;2023-06-24T14:15:32;4.43;;;3.47;;
80249;SDS011;69561;37.974;23.708;2023-06-24T14:17:58;5.15;;;3.70;;
80249;SDS011;69561;37.974;23.708;2023-06-24T14:20:24;3.90;;;3.45;;
80249;SDS011;69561;37.974;23.708;2023-06-24T14:22:50;3.95;;;3.55;;
80249;SDS011;69561;37.974;23.708;2023-06-24T14:25:16;5.60;;;3.70;;
80249;SDS011;69561;37.974;23.708;2023-06-24T14:27:42;9.77;;;3.70;;
80249;SDS011;69561;37.974;23.708;2023-06-24T14:30:08;4.07;;;3.50;;
80249;SDS011;69561;37.974;23.708;2023-06-24T14:32:34;4.03;;;3.35;;
80249;SDS011;69561;37.974;23.708;2023-06-24T14:34:59;5.93;;;3.40;;
80249;SDS011;69561;37.974;23.708;2023-06-24T14:37:25;5.85;;;3.60;;
80249;SDS011;69561;37.974;23.708;2023-06-24T14:39:51;5.28;;;3.63;;
80249;SDS011;69561;37.974;23.708;2023-06-24T14:42:16;5.47;;;3.70;;
80249;SDS011;69561;37.974;23.708;2023-06-24T14:44:42;6.30;;;3.80;;
80249;SDS011;69561;37.974;23.708;2023-06-24T14:47:08;4.20;;;3.40;;
80249;SDS011;69561;37.974;23.708;2023-06-24T14:49:34;3.83;;;3.40;;
80249;SDS011;69561;37.974;23.708;2023-06-24T14:52:00;4.25;;;3.60;;
80249;SDS011;69561;37.974;23.708;2023-06-24T14:54:26;6.05;;;3.47;;
80249;SDS011;69561;37.974;23.708;2023-06-24T14:56:51;5.93;;;3.47;;